sensor_id;sensor_type;location;lat;lon;timestamp;temperature;humidity
13682;DHT22;6913;49.892;7.936;2023-06-22T00:02:28;23.60;99.90
13682;DHT22;6913;49.892;7.936;2023-06-22T00:04:54;23.50;99.90
13682;DHT22;6913;49.892;7.936;2023-06-22T00:07:21;23.80;99.90
13682;DHT22;6913;49.892;7.936;2023-06-22T00:09:49;23.40;99.90
13682;DHT22;6913;49.892;7.936;2023-06-22T00:12:16;23.50;99.90
13682;DHT22;6913;49.892;7.936;2023-06-22T00:14:42;23.40;99.90
13682;DHT22;6913;49.892;7.936;2023-06-22T00:17:09;23.30;99.90
13682;DHT22;6913;49.892;7.936;2023-06-22T00:19:37;23.40;99.90
13682;DHT22;6913;49.892;7.936;2023-06-22T00:22:06;23.30;99.90
13682;DHT22;6913;49.892;7.936;2023-06-22T00:24:32;23.30;99.90
13682;DHT22;6913;49.892;7.936;2023-06-22T00:26:59;23.00;99.90
13682;DHT22;6913;49.892;7.936;2023-06-22T00:29:26;23.10;99.90
13682;DHT22;6913;49.892;7.936;2023-06-22T00:31:53;23.20;99.90
13682;DHT22;6913;49.892;7.936;2023-06-22T00:34:19;23.40;99.90
13682;DHT22;6913;49.892;7.936;2023-06-22T00:36:47;23.00;99.90
13682;DHT22;6913;49.892;7.936;2023-06-22T00:39:17;23.10;99.90
13682;DHT22;6913;49.892;7.936;2023-06-22T00:41:44;23.00;99.90
13682;DHT22;6913;49.892;7.936;2023-06-22T00:44:10;23.20;99.90
13682;DHT22;6913;49.892;7.936;2023-06-22T00:46:37;22.90;99.90
13682;DHT22;6913;49.892;7.936;2023-06-22T00:49:04;22.50;99.90
13682;DHT22;6913;49.892;7.936;2023-06-22T00:51:31;22.20;99.90
13682;DHT22;6913;49.892;7.936;2023-06-22T00:54:00;21.70;99.90
13682;DHT22;6913;49.892;7.936;2023-06-22T00:56:27;21.20;99.90
13682;DHT22;6913;49.892;7.936;2023-06-22T00:58:55;20.90;99.90
13682;DHT22;6913;49.892;7.936;2023-06-22T01:01:23;21.30;99.90
13682;DHT22;6913;49.892;7.936;2023-06-22T01:03:50;21.30;99.90
13682;DHT22;6913;49.892;7.936;2023-06-22T01:06:22;21.70;99.90
13682;DHT22;6913;49.892;7.936;2023-06-22T01:09:02;21.80;99.90
13682;DHT22;6913;49.892;7.936;2023-06-22T01:11:36;21.90;99.90
13682;DHT22;6913;49.892;7.936;2023-06-22T01:14:07;22.00;99.90
13682;DHT22;6913;49.892;7.936;2023-06-22T01:16:41;22.00;99.90
13682;DHT22;6913;49.892;7.936;2023-06-22T01:19:23;22.00;99.90
13682;DHT22;6913;49.892;7.936;2023-06-22T01:21:55;22.00;99.90
13682;DHT22;6913;49.892;7.936;2023-06-22T01:24:27;22.10;99.90
13682;DHT22;6913;49.892;7.936;2023-06-22T01:27:12;22.20;99.90
13682;DHT22;6913;49.892;7.936;2023-06-22T01:29:50;22.20;99.90
13682;DHT22;6913;49.892;7.936;2023-06-22T01:32:18;22.30;99.90
13682;DHT22;6913;49.892;7.936;2023-06-22T01:34:46;21.80;99.90
13682;DHT22;6913;49.892;7.936;2023-06-22T01:37:14;21.50;99.90
13682;DHT22;6913;49.892;7.936;2023-06-22T01:39:42;21.10;99.90
13682;DHT22;6913;49.892;7.936;2023-06-22T01:42:09;21.00;99.90
13682;DHT22;6913;49.892;7.936;2023-06-22T01:44:37;21.20;99.90
13682;DHT22;6913;49.892;7.936;2023-06-22T01:47:06;21.30;99.90
13682;DHT22;6913;49.892;7.936;2023-06-22T01:49:33;21.50;99.90
13682;DHT22;6913;49.892;7.936;2023-06-22T01:52:00;21.70;99.90
13682;DHT22;6913;49.892;7.936;2023-06-22T01:54:27;21.90;99.90
13682;DHT22;6913;49.892;7.936;2023-06-22T01:56:54;21.90;99.90
13682;DHT22;6913;49.892;7.936;2023-06-22T01:59:25;22.00;99.90
13682;DHT22;6913;49.892;7.936;2023-06-22T02:01:58;22.00;99.90
13682;DHT22;6913;49.892;7.936;2023-06-22T02:04:33;22.30;99.90
13682;DHT22;6913;49.892;7.936;2023-06-22T02:07:04;22.00;99.90
13682;DHT22;6913;49.892;7.936;2023-06-22T02:09:34;22.00;99.90
13682;DHT22;6913;49.892;7.936;2023-06-22T02:12:02;22.00;99.90
13682;DHT22;6913;49.892;7.936;2023-06-22T02:14:30;22.00;99.90
13682;DHT22;6913;49.892;7.936;2023-06-22T02:16:57;22.00;99.90
13682;DHT22;6913;49.892;7.936;2023-06-22T02:19:25;22.00;99.90
13682;DHT22;6913;49.892;7.936;2023-06-22T02:21:54;22.10;99.90
13682;DHT22;6913;49.892;7.936;2023-06-22T02:24:21;22.20;99.90
13682;DHT22;6913;49.892;7.936;2023-06-22T02:26:49;22.40;99.90
13682;DHT22;6913;49.892;7.936;2023-06-22T02:29:16;22.10;99.90
13682;DHT22;6913;49.892;7.936;2023-06-22T02:31:42;21.60;99.90
13682;DHT22;6913;49.892;7.936;2023-06-22T02:34:09;20.90;99.90
13682;DHT22;6913;49.892;7.936;2023-06-22T02:36:36;20.70;99.90
13682;DHT22;6913;49.892;7.936;2023-06-22T02:39:04;21.20;99.90
13682;DHT22;6913;49.892;7.936;2023-06-22T02:41:31;21.10;99.90
13682;DHT22;6913;49.892;7.936;2023-06-22T02:43:58;21.50;99.90
13682;DHT22;6913;49.892;7.936;2023-06-22T02:46:24;21.30;99.90
13682;DHT22;6913;49.892;7.936;2023-06-22T02:48:51;21.50;99.90
13682;DHT22;6913;49.892;7.936;2023-06-22T02:51:18;21.60;99.90
13682;DHT22;6913;49.892;7.936;2023-06-22T02:53:46;21.90;99.90
13682;DHT22;6913;49.892;7.936;2023-06-22T02:56:14;21.70;99.90
13682;DHT22;6913;49.892;7.936;2023-06-22T02:58:41;22.00;99.90
13682;DHT22;6913;49.892;7.936;2023-06-22T03:01:08;21.70;99.90
13682;DHT22;6913;49.892;7.936;2023-06-22T03:03:35;21.70;99.90
13682;DHT22;6913;49.892;7.936;2023-06-22T03:06:02;21.70;99.90
13682;DHT22;6913;49.892;7.936;2023-06-22T03:08:29;21.70;99.90
13682;DHT22;6913;49.892;7.936;2023-06-22T03:10:56;21.80;99.90
13682;DHT22;6913;49.892;7.936;2023-06-22T03:13:24;21.80;99.90
13682;DHT22;6913;49.892;7.936;2023-06-22T03:15:50;21.90;99.90
13682;DHT22;6913;49.892;7.936;2023-06-22T03:18:18;21.90;99.90
13682;DHT22;6913;49.892;7.936;2023-06-22T03:20:45;21.90;99.90
13682;DHT22;6913;49.892;7.936;2023-06-22T03:23:11;21.90;99.90
13682;DHT22;6913;49.892;7.936;2023-06-22T03:25:38;21.80;99.90
13682;DHT22;6913;49.892;7.936;2023-06-22T03:28:05;21.80;99.90
13682;DHT22;6913;49.892;7.936;2023-06-22T03:30:33;21.80;99.90
13682;DHT22;6913;49.892;7.936;2023-06-22T03:33:00;21.80;99.90
13682;DHT22;6913;49.892;7.936;2023-06-22T03:35:27;21.80;99.90
13682;DHT22;6913;49.892;7.936;2023-06-22T03:37:54;22.10;99.90
13682;DHT22;6913;49.892;7.936;2023-06-22T03:40:20;21.80;99.90
13682;DHT22;6913;49.892;7.936;2023-06-22T03:42:48;21.90;99.90
13682;DHT22;6913;49.892;7.936;2023-06-22T03:45:15;21.80;99.90
13682;DHT22;6913;49.892;7.936;2023-06-22T03:47:43;21.80;99.90
13682;DHT22;6913;49.892;7.936;2023-06-22T03:50:10;21.90;99.90
13682;DHT22;6913;49.892;7.936;2023-06-22T03:52:37;21.80;99.90
13682;DHT22;6913;49.892;7.936;2023-06-22T03:55:05;21.70;99.90
13682;DHT22;6913;49.892;7.936;2023-06-22T03:57:32;21.70;99.90
13682;DHT22;6913;49.892;7.936;2023-06-22T03:59:59;21.80;99.90
13682;DHT22;6913;49.892;7.936;2023-06-22T04:02:26;21.80;99.90
13682;DHT22;6913;49.892;7.936;2023-06-22T04:04:54;21.80;99.90
13682;DHT22;6913;49.892;7.936;2023-06-22T04:07:21;21.70;99.90
13682;DHT22;6913;49.892;7.936;2023-06-22T04:09:47;22.00;99.90
13682;DHT22;6913;49.892;7.936;2023-06-22T04:12:14;21.70;99.90
13682;DHT22;6913;49.892;7.936;2023-06-22T04:14:41;21.80;99.90
13682;DHT22;6913;49.892;7.936;2023-06-22T04:17:08;21.70;99.90
13682;DHT22;6913;49.892;7.936;2023-06-22T04:19:35;21.80;99.90
13682;DHT22;6913;49.892;7.936;2023-06-22T04:22:03;21.90;99.90
13682;DHT22;6913;49.892;7.936;2023-06-22T04:24:32;21.60;99.90
13682;DHT22;6913;49.892;7.936;2023-06-22T04:26:59;21.60;99.90
13682;DHT22;6913;49.892;7.936;2023-06-22T04:29:28;21.70;99.90
13682;DHT22;6913;49.892;7.936;2023-06-22T04:31:56;21.90;99.90
13682;DHT22;6913;49.892;7.936;2023-06-22T04:34:24;21.70;99.90
13682;DHT22;6913;49.892;7.936;2023-06-22T04:36:51;21.70;99.90
13682;DHT22;6913;49.892;7.936;2023-06-22T04:39:20;21.70;99.90
13682;DHT22;6913;49.892;7.936;2023-06-22T04:44:15;21.70;99.90
13682;DHT22;6913;49.892;7.936;2023-06-22T04:46:49;22.00;99.90
13682;DHT22;6913;49.892;7.936;2023-06-22T04:49:20;21.70;99.90
13682;DHT22;6913;49.892;7.936;2023-06-22T04:51:47;21.70;99.90
13682;DHT22;6913;49.892;7.936;2023-06-22T04:54:14;21.90;99.90
13682;DHT22;6913;49.892;7.936;2023-06-22T04:56:42;21.60;99.90
13682;DHT22;6913;49.892;7.936;2023-06-22T04:59:12;21.60;99.90
13682;DHT22;6913;49.892;7.936;2023-06-22T05:01:38;21.50;99.90
13682;DHT22;6913;49.892;7.936;2023-06-22T05:04:05;21.80;99.90
13682;DHT22;6913;49.892;7.936;2023-06-22T05:06:33;22.30;99.90
13682;DHT22;6913;49.892;7.936;2023-06-22T05:09:00;22.10;99.90
13682;DHT22;6913;49.892;7.936;2023-06-22T05:11:27;22.40;99.90
13682;DHT22;6913;49.892;7.936;2023-06-22T05:13:55;22.70;99.90
13682;DHT22;6913;49.892;7.936;2023-06-22T05:16:23;22.60;99.90
13682;DHT22;6913;49.892;7.936;2023-06-22T05:18:52;23.00;99.90
13682;DHT22;6913;49.892;7.936;2023-06-22T05:21:22;23.50;99.90
13682;DHT22;6913;49.892;7.936;2023-06-22T05:23:49;23.80;99.90
13682;DHT22;6913;49.892;7.936;2023-06-22T05:26:16;24.10;99.90
13682;DHT22;6913;49.892;7.936;2023-06-22T05:28:43;24.30;99.90
13682;DHT22;6913;49.892;7.936;2023-06-22T05:31:13;24.70;99.90
13682;DHT22;6913;49.892;7.936;2023-06-22T05:33:40;25.00;99.90
13682;DHT22;6913;49.892;7.936;2023-06-22T05:36:07;25.00;99.90
13682;DHT22;6913;49.892;7.936;2023-06-22T05:38:35;25.10;99.90
13682;DHT22;6913;49.892;7.936;2023-06-22T05:41:02;25.40;99.90
13682;DHT22;6913;49.892;7.936;2023-06-22T05:43:30;25.50;99.90
13682;DHT22;6913;49.892;7.936;2023-06-22T05:45:57;25.30;99.90
13682;DHT22;6913;49.892;7.936;2023-06-22T05:48:25;25.70;99.90
13682;DHT22;6913;49.892;7.936;2023-06-22T05:50:53;26.20;99.90
13682;DHT22;6913;49.892;7.936;2023-06-22T05:53:20;26.40;99.90
13682;DHT22;6913;49.892;7.936;2023-06-22T05:55:47;26.50;99.90
13682;DHT22;6913;49.892;7.936;2023-06-22T05:58:14;26.40;99.90
13682;DHT22;6913;49.892;7.936;2023-06-22T06:00:41;26.80;99.90
13682;DHT22;6913;49.892;7.936;2023-06-22T06:03:09;27.00;99.90
13682;DHT22;6913;49.892;7.936;2023-06-22T06:05:37;27.30;99.90
13682;DHT22;6913;49.892;7.936;2023-06-22T06:08:05;27.40;99.90
13682;DHT22;6913;49.892;7.936;2023-06-22T06:10:33;27.50;99.90
13682;DHT22;6913;49.892;7.936;2023-06-22T06:13:00;26.90;99.90
13682;DHT22;6913;49.892;7.936;2023-06-22T06:15:30;26.70;99.90
13682;DHT22;6913;49.892;7.936;2023-06-22T06:17:56;27.00;99.90
13682;DHT22;6913;49.892;7.936;2023-06-22T06:20:25;27.00;99.90
13682;DHT22;6913;49.892;7.936;2023-06-22T06:22:54;26.60;99.90
13682;DHT22;6913;49.892;7.936;2023-06-22T06:25:22;26.60;99.90
13682;DHT22;6913;49.892;7.936;2023-06-22T06:27:50;26.40;99.90
13682;DHT22;6913;49.892;7.936;2023-06-22T06:30:18;26.40;99.90
13682;DHT22;6913;49.892;7.936;2023-06-22T06:32:45;26.60;99.90
13682;DHT22;6913;49.892;7.936;2023-06-22T15:29:05;28.90;99.90
13682;DHT22;6913;49.892;7.936;2023-06-22T15:31:32;27.90;99.90
13682;DHT22;6913;49.892;7.936;2023-06-22T15:34:00;26.80;99.90
13682;DHT22;6913;49.892;7.936;2023-06-22T15:36:29;26.20;99.90
13682;DHT22;6913;49.892;7.936;2023-06-22T15:38:55;26.10;99.90
13682;DHT22;6913;49.892;7.936;2023-06-22T15:41:22;26.00;99.90
13682;DHT22;6913;49.892;7.936;2023-06-22T15:43:49;26.30;99.90
13682;DHT22;6913;49.892;7.936;2023-06-22T15:46:16;27.00;99.90
13682;DHT22;6913;49.892;7.936;2023-06-22T15:48:43;27.00;99.90
13682;DHT22;6913;49.892;7.936;2023-06-22T15:51:11;26.90;99.90
13682;DHT22;6913;49.892;7.936;2023-06-22T15:53:38;26.90;99.90
13682;DHT22;6913;49.892;7.936;2023-06-22T15:58:35;27.30;99.90
13682;DHT22;6913;49.892;7.936;2023-06-22T16:01:01;27.40;99.90
13682;DHT22;6913;49.892;7.936;2023-06-22T16:03:28;27.60;99.90
13682;DHT22;6913;49.892;7.936;2023-06-22T16:05:55;28.00;99.90
13682;DHT22;6913;49.892;7.936;2023-06-22T16:08:23;28.20;99.90
13682;DHT22;6913;49.892;7.936;2023-06-22T16:10:51;28.30;99.90
13682;DHT22;6913;49.892;7.936;2023-06-22T16:13:17;28.50;99.90
13682;DHT22;6913;49.892;7.936;2023-06-22T16:15:44;28.60;99.90
13682;DHT22;6913;49.892;7.936;2023-06-22T16:18:12;28.70;99.90
13682;DHT22;6913;49.892;7.936;2023-06-22T16:20:38;28.70;99.90
13682;DHT22;6913;49.892;7.936;2023-06-22T16:23:05;28.70;99.90
13682;DHT22;6913;49.892;7.936;2023-06-22T16:30:28;29.10;99.90
13682;DHT22;6913;49.892;7.936;2023-06-22T16:32:56;29.00;99.90
13682;DHT22;6913;49.892;7.936;2023-06-22T16:35:24;29.20;99.90
13682;DHT22;6913;49.892;7.936;2023-06-22T16:37:53;28.70;99.90
13682;DHT22;6913;49.892;7.936;2023-06-22T16:40:19;28.50;99.90
13682;DHT22;6913;49.892;7.936;2023-06-22T16:42:48;28.50;99.90
13682;DHT22;6913;49.892;7.936;2023-06-22T16:45:16;28.90;99.90
13682;DHT22;6913;49.892;7.936;2023-06-22T16:47:45;29.00;99.90
13682;DHT22;6913;49.892;7.936;2023-06-22T16:50:12;29.20;99.90
13682;DHT22;6913;49.892;7.936;2023-06-22T16:52:38;29.30;99.90
13682;DHT22;6913;49.892;7.936;2023-06-22T16:55:06;29.40;99.90
13682;DHT22;6913;49.892;7.936;2023-06-22T16:57:33;29.40;99.70
13682;DHT22;6913;49.892;7.936;2023-06-22T17:00:03;29.50;99.80
13682;DHT22;6913;49.892;7.936;2023-06-22T17:02:37;29.60;99.90
13682;DHT22;6913;49.892;7.936;2023-06-22T17:05:06;29.70;99.90
13682;DHT22;6913;49.892;7.936;2023-06-22T17:07:34;30.00;99.90
13682;DHT22;6913;49.892;7.936;2023-06-22T17:10:03;30.10;99.90
13682;DHT22;6913;49.892;7.936;2023-06-22T17:12:33;30.20;99.00
13682;DHT22;6913;49.892;7.936;2023-06-22T17:15:02;30.30;99.10
13682;DHT22;6913;49.892;7.936;2023-06-22T17:17:29;30.20;98.30
13682;DHT22;6913;49.892;7.936;2023-06-22T17:19:56;30.20;98.60
13682;DHT22;6913;49.892;7.936;2023-06-22T17:22:22;30.20;98.50
13682;DHT22;6913;49.892;7.936;2023-06-22T17:24:50;30.20;99.00
13682;DHT22;6913;49.892;7.936;2023-06-22T17:27:26;30.10;99.80
13682;DHT22;6913;49.892;7.936;2023-06-22T17:30:05;30.00;99.90
13682;DHT22;6913;49.892;7.936;2023-06-22T17:32:32;29.90;99.90
13682;DHT22;6913;49.892;7.936;2023-06-22T17:34:58;29.80;99.90
13682;DHT22;6913;49.892;7.936;2023-06-22T17:37:25;29.80;99.90
13682;DHT22;6913;49.892;7.936;2023-06-22T17:39:53;29.80;99.90
13682;DHT22;6913;49.892;7.936;2023-06-22T17:42:23;29.70;99.90
13682;DHT22;6913;49.892;7.936;2023-06-22T17:44:50;29.70;99.90
13682;DHT22;6913;49.892;7.936;2023-06-22T17:47:24;29.60;99.90
13682;DHT22;6913;49.892;7.936;2023-06-22T17:49:50;29.60;99.90
13682;DHT22;6913;49.892;7.936;2023-06-22T17:52:18;29.50;99.90
13682;DHT22;6913;49.892;7.936;2023-06-22T17:54:45;29.50;99.90
13682;DHT22;6913;49.892;7.936;2023-06-22T17:57:15;29.40;99.90
13682;DHT22;6913;49.892;7.936;2023-06-22T17:59:47;29.20;99.90
13682;DHT22;6913;49.892;7.936;2023-06-22T18:02:20;29.00;99.90
13682;DHT22;6913;49.892;7.936;2023-06-22T18:04:49;28.90;99.90
13682;DHT22;6913;49.892;7.936;2023-06-22T18:07:16;28.70;99.90
13682;DHT22;6913;49.892;7.936;2023-06-22T18:09:44;28.60;99.90
13682;DHT22;6913;49.892;7.936;2023-06-22T18:12:12;28.60;99.90
13682;DHT22;6913;49.892;7.936;2023-06-22T18:14:41;28.50;99.90
13682;DHT22;6913;49.892;7.936;2023-06-22T18:17:08;28.30;99.90
13682;DHT22;6913;49.892;7.936;2023-06-22T18:19:37;28.20;99.90
13682;DHT22;6913;49.892;7.936;2023-06-22T18:22:05;28.00;99.90
13682;DHT22;6913;49.892;7.936;2023-06-22T18:24:33;27.90;99.90
13682;DHT22;6913;49.892;7.936;2023-06-22T18:27:01;27.90;99.90
13682;DHT22;6913;49.892;7.936;2023-06-22T18:29:29;27.80;99.90
13682;DHT22;6913;49.892;7.936;2023-06-22T18:31:56;27.60;99.90
13682;DHT22;6913;49.892;7.936;2023-06-22T18:34:23;27.40;99.90
13682;DHT22;6913;49.892;7.936;2023-06-22T18:36:52;27.50;99.90
13682;DHT22;6913;49.892;7.936;2023-06-22T18:39:22;27.60;99.90
13682;DHT22;6913;49.892;7.936;2023-06-22T18:41:51;27.40;99.90
13682;DHT22;6913;49.892;7.936;2023-06-22T18:44:19;27.40;99.90
13682;DHT22;6913;49.892;7.936;2023-06-22T18:46:49;27.20;99.90
13682;DHT22;6913;49.892;7.936;2023-06-22T18:49:16;27.40;99.90
13682;DHT22;6913;49.892;7.936;2023-06-22T18:51:52;27.20;99.90
13682;DHT22;6913;49.892;7.936;2023-06-22T18:54:22;27.20;99.90
13682;DHT22;6913;49.892;7.936;2023-06-22T18:56:53;27.00;99.90
13682;DHT22;6913;49.892;7.936;2023-06-22T18:59:39;26.90;99.90
13682;DHT22;6913;49.892;7.936;2023-06-22T19:02:08;26.80;99.90
13682;DHT22;6913;49.892;7.936;2023-06-22T19:04:35;26.80;99.90
13682;DHT22;6913;49.892;7.936;2023-06-22T19:07:04;26.60;99.90
13682;DHT22;6913;49.892;7.936;2023-06-22T19:09:33;26.40;99.90
13682;DHT22;6913;49.892;7.936;2023-06-22T19:12:20;26.40;99.90
13682;DHT22;6913;49.892;7.936;2023-06-22T19:15:08;26.20;99.90
13682;DHT22;6913;49.892;7.936;2023-06-22T19:17:37;25.90;99.90
13682;DHT22;6913;49.892;7.936;2023-06-22T19:20:04;25.90;99.90
13682;DHT22;6913;49.892;7.936;2023-06-22T19:22:45;25.70;99.90
13682;DHT22;6913;49.892;7.936;2023-06-22T19:25:21;25.50;99.90
13682;DHT22;6913;49.892;7.936;2023-06-22T19:27:49;25.30;99.90
13682;DHT22;6913;49.892;7.936;2023-06-22T19:30:18;25.30;99.90
13682;DHT22;6913;49.892;7.936;2023-06-22T19:32:46;25.00;99.90
13682;DHT22;6913;49.892;7.936;2023-06-22T19:35:13;24.90;99.90
13682;DHT22;6913;49.892;7.936;2023-06-22T19:37:40;24.80;99.90
13682;DHT22;6913;49.892;7.936;2023-06-22T19:40:11;24.60;99.90
13682;DHT22;6913;49.892;7.936;2023-06-22T19:42:44;24.50;99.90
13682;DHT22;6913;49.892;7.936;2023-06-22T19:45:14;24.40;99.90
13682;DHT22;6913;49.892;7.936;2023-06-22T19:47:43;24.20;99.90
13682;DHT22;6913;49.892;7.936;2023-06-22T19:50:10;24.10;99.90
13682;DHT22;6913;49.892;7.936;2023-06-22T19:52:39;24.00;99.90
13682;DHT22;6913;49.892;7.936;2023-06-22T19:55:09;23.90;99.90
13682;DHT22;6913;49.892;7.936;2023-06-22T19:57:39;23.70;99.90
13682;DHT22;6913;49.892;7.936;2023-06-22T20:00:09;23.60;99.90
13682;DHT22;6913;49.892;7.936;2023-06-22T20:02:40;23.40;99.90
13682;DHT22;6913;49.892;7.936;2023-06-22T20:05:09;23.30;99.90
13682;DHT22;6913;49.892;7.936;2023-06-22T20:07:37;23.20;99.90
13682;DHT22;6913;49.892;7.936;2023-06-22T20:10:12;23.10;99.90
13682;DHT22;6913;49.892;7.936;2023-06-22T20:12:39;23.10;99.90
13682;DHT22;6913;49.892;7.936;2023-06-22T20:15:20;23.10;99.90
13682;DHT22;6913;49.892;7.936;2023-06-22T20:18:00;23.10;99.90
13682;DHT22;6913;49.892;7.936;2023-06-22T20:20:29;23.10;99.90
13682;DHT22;6913;49.892;7.936;2023-06-22T20:22:59;23.10;99.90
13682;DHT22;6913;49.892;7.936;2023-06-22T20:25:29;23.00;99.90
13682;DHT22;6913;49.892;7.936;2023-06-22T20:27:56;23.00;99.90
13682;DHT22;6913;49.892;7.936;2023-06-22T20:30:24;23.00;99.90
13682;DHT22;6913;49.892;7.936;2023-06-22T20:32:53;23.00;99.90
13682;DHT22;6913;49.892;7.936;2023-06-22T20:35:21;22.90;99.90
13682;DHT22;6913;49.892;7.936;2023-06-22T20:37:49;23.10;99.90
13682;DHT22;6913;49.892;7.936;2023-06-22T20:40:19;22.80;99.90
13682;DHT22;6913;49.892;7.936;2023-06-22T20:42:46;22.90;99.90
13682;DHT22;6913;49.892;7.936;2023-06-22T20:45:13;22.70;99.90
13682;DHT22;6913;49.892;7.936;2023-06-22T20:47:41;22.60;99.90
13682;DHT22;6913;49.892;7.936;2023-06-22T20:50:09;22.60;99.90
13682;DHT22;6913;49.892;7.936;2023-06-22T20:52:37;22.60;99.90
13682;DHT22;6913;49.892;7.936;2023-06-22T20:55:06;22.80;99.90
13682;DHT22;6913;49.892;7.936;2023-06-22T20:57:33;22.60;99.90
13682;DHT22;6913;49.892;7.936;2023-06-22T21:00:00;22.60;99.90
13682;DHT22;6913;49.892;7.936;2023-06-22T21:02:30;22.80;99.90
13682;DHT22;6913;49.892;7.936;2023-06-22T21:04:58;22.50;99.90
13682;DHT22;6913;49.892;7.936;2023-06-22T21:07:25;22.50;99.90
13682;DHT22;6913;49.892;7.936;2023-06-22T21:09:51;22.50;99.90
13682;DHT22;6913;49.892;7.936;2023-06-22T21:12:18;22.50;99.90
13682;DHT22;6913;49.892;7.936;2023-06-22T21:14:45;22.50;99.90
13682;DHT22;6913;49.892;7.936;2023-06-22T21:17:12;22.50;99.90
13682;DHT22;6913;49.892;7.936;2023-06-22T21:19:39;22.50;99.90
13682;DHT22;6913;49.892;7.936;2023-06-22T21:22:07;22.40;99.90
13682;DHT22;6913;49.892;7.936;2023-06-22T21:24:34;22.40;99.90
13682;DHT22;6913;49.892;7.936;2023-06-22T21:27:01;22.40;99.90
13682;DHT22;6913;49.892;7.936;2023-06-22T21:29:28;22.30;99.90
13682;DHT22;6913;49.892;7.936;2023-06-22T21:31:54;22.20;99.90
13682;DHT22;6913;49.892;7.936;2023-06-22T21:34:21;22.30;99.90
13682;DHT22;6913;49.892;7.936;2023-06-22T21:36:48;22.20;99.90
13682;DHT22;6913;49.892;7.936;2023-06-22T21:39:16;22.30;99.90
13682;DHT22;6913;49.892;7.936;2023-06-22T21:41:44;22.20;99.90
13682;DHT22;6913;49.892;7.936;2023-06-22T21:44:10;22.20;99.90
13682;DHT22;6913;49.892;7.936;2023-06-22T21:46:37;22.10;99.90
13682;DHT22;6913;49.892;7.936;2023-06-22T21:49:04;22.10;99.90
13682;DHT22;6913;49.892;7.936;2023-06-22T21:51:31;22.10;99.90
13682;DHT22;6913;49.892;7.936;2023-06-22T21:53:58;21.90;99.90
13682;DHT22;6913;49.892;7.936;2023-06-22T21:56:26;21.90;99.90
13682;DHT22;6913;49.892;7.936;2023-06-22T21:58:53;22.00;99.90
13682;DHT22;6913;49.892;7.936;2023-06-22T22:01:20;22.10;99.90
13682;DHT22;6913;49.892;7.936;2023-06-22T22:03:46;21.90;99.90
13682;DHT22;6913;49.892;7.936;2023-06-22T22:06:13;22.10;99.90
13682;DHT22;6913;49.892;7.936;2023-06-22T22:08:40;21.70;99.90
13682;DHT22;6913;49.892;7.936;2023-06-22T22:11:07;21.60;99.90
13682;DHT22;6913;49.892;7.936;2023-06-22T22:13:35;21.50;99.90
13682;DHT22;6913;49.892;7.936;2023-06-22T22:16:03;21.60;99.90
13682;DHT22;6913;49.892;7.936;2023-06-22T22:18:31;21.40;99.90
13682;DHT22;6913;49.892;7.936;2023-06-22T22:20:58;21.20;99.90
13682;DHT22;6913;49.892;7.936;2023-06-22T22:23:25;21.10;99.90
13682;DHT22;6913;49.892;7.936;2023-06-22T22:25:53;21.20;99.90
13682;DHT22;6913;49.892;7.936;2023-06-22T22:28:20;21.20;99.90
13682;DHT22;6913;49.892;7.936;2023-06-22T22:30:50;21.20;99.90
13682;DHT22;6913;49.892;7.936;2023-06-22T22:33:17;21.20;99.90
13682;DHT22;6913;49.892;7.936;2023-06-22T22:35:44;20.90;99.90
13682;DHT22;6913;49.892;7.936;2023-06-22T22:38:11;21.20;99.90
13682;DHT22;6913;49.892;7.936;2023-06-22T22:40:38;21.10;99.90
13682;DHT22;6913;49.892;7.936;2023-06-22T22:43:04;20.90;99.90
13682;DHT22;6913;49.892;7.936;2023-06-22T22:45:31;20.90;99.90
13682;DHT22;6913;49.892;7.936;2023-06-22T22:47:59;20.90;99.90
13682;DHT22;6913;49.892;7.936;2023-06-22T22:50:26;21.00;99.90
13682;DHT22;6913;49.892;7.936;2023-06-22T22:52:53;20.70;99.90
13682;DHT22;6913;49.892;7.936;2023-06-22T22:55:20;20.70;99.90
13682;DHT22;6913;49.892;7.936;2023-06-22T22:57:48;21.10;99.90
13682;DHT22;6913;49.892;7.936;2023-06-22T23:00:15;20.70;99.90
13682;DHT22;6913;49.892;7.936;2023-06-22T23:02:42;20.70;99.90
13682;DHT22;6913;49.892;7.936;2023-06-22T23:05:11;20.80;99.90
13682;DHT22;6913;49.892;7.936;2023-06-22T23:07:40;20.80;99.90
13682;DHT22;6913;49.892;7.936;2023-06-22T23:10:08;20.80;99.90
13682;DHT22;6913;49.892;7.936;2023-06-22T23:12:34;20.70;99.90
13682;DHT22;6913;49.892;7.936;2023-06-22T23:15:01;20.70;99.90
13682;DHT22;6913;49.892;7.936;2023-06-22T23:17:28;20.60;99.90
13682;DHT22;6913;49.892;7.936;2023-06-22T23:19:55;20.80;99.90
13682;DHT22;6913;49.892;7.936;2023-06-22T23:22:23;20.90;99.90
13682;DHT22;6913;49.892;7.936;2023-06-22T23:24:50;20.60;99.90
13682;DHT22;6913;49.892;7.936;2023-06-22T23:27:17;20.70;99.90
13682;DHT22;6913;49.892;7.936;2023-06-22T23:29:44;20.70;99.90
13682;DHT22;6913;49.892;7.936;2023-06-22T23:32:12;20.90;99.90
13682;DHT22;6913;49.892;7.936;2023-06-22T23:34:39;20.90;99.90
13682;DHT22;6913;49.892;7.936;2023-06-22T23:37:06;20.70;99.90
13682;DHT22;6913;49.892;7.936;2023-06-22T23:39:34;20.70;99.90
13682;DHT22;6913;49.892;7.936;2023-06-22T23:42:01;20.80;99.90
13682;DHT22;6913;49.892;7.936;2023-06-22T23:44:27;20.70;99.90
13682;DHT22;6913;49.892;7.936;2023-06-22T23:46:54;20.80;99.90
13682;DHT22;6913;49.892;7.936;2023-06-22T23:49:23;20.80;99.90
13682;DHT22;6913;49.892;7.936;2023-06-22T23:51:50;20.60;99.90
13682;DHT22;6913;49.892;7.936;2023-06-22T23:54:17;20.60;99.90
13682;DHT22;6913;49.892;7.936;2023-06-22T23:56:45;20.60;99.90
13682;DHT22;6913;49.892;7.936;2023-06-22T23:59:13;20.80;99.90
